Terminal Aerodrome Forecast
Issued by NWS Wilmington, OH

Current Version | Previous Version | Text Only | Print | Product List | Glossary Off
Versions: 1 2 3 4 5 6 7 8 9 10 11 12 13 14 15

465
FTUS41 KILN 291132
TAFCMH
TAF
KCMH 291132Z 2912/3012 19006KT P6SM SCT100 BKN250
     FM300000 19005KT P6SM VCTS BKN040CB
     FM300400 21002KT P6SM BKN040
     FM300900 32002KT P6SM FEW040=

USA.gov is the U.S. government's official web portal to all federal, state and local government web resources and services.